Time;durP1;ratioP1;P1;durP2;ratioP2;P2;SDS_P1;SDS_P2;PMS_P1;PMS_P2;Temp;Humidity;BMP_temperature;BMP_pressure;BME280_temperature;BME280_humidity;BME280_pressure;Samples;Min_cycle;Max_cycle;Signal;HPM_P1;HPM_P2
2024/03/12 00:00:17;;;;;;;3.00;2.70;;;7.00;1.00;;;;;;7382062;19;20323;-72
2024/03/12 00:02:51;;;;;;;4.97;3.10;;;6.90;1.00;;;;;;7372107;19;20039;-70
2024/03/12 00:05:22;;;;;;;5.57;2.75;;;6.90;1.00;;;;;;7377062;19;20715;-71
2024/03/12 00:07:53;;;;;;;3.40;2.92;;;6.80;1.00;;;;;;7379657;19;20031;-70
2024/03/12 00:10:24;;;;;;;4.10;3.10;;;6.80;1.00;;;;;;7378632;19;20070;-70
2024/03/12 00:12:56;;;;;;;4.90;2.83;;;6.80;1.00;;;;;;7377726;19;20048;-71
2024/03/12 00:15:27;;;;;;;5.05;3.30;;;6.80;1.00;;;;;;7377753;19;20041;-71
2024/03/12 00:18:04;;;;;;;3.55;3.10;;;6.80;1.00;;;;;;7377256;19;20007;-71
2024/03/12 00:20:39;;;;;;;3.90;2.88;;;6.70;1.00;;;;;;7377946;19;20010;-71
2024/03/12 00:23:09;;;;;;;;;;;6.70;1.00;;;;;;7379024;19;20731;-70
2024/03/12 00:25:40;;;;;;;3.63;2.90;;;6.70;1.00;;;;;;7376880;19;19907;-70
2024/03/12 00:28:11;;;;;;;5.78;3.35;;;6.60;1.00;;;;;;7377778;19;20006;-70
2024/03/12 00:30:42;;;;;;;3.55;2.70;;;6.60;1.00;;;;;;7377699;19;20007;-70
2024/03/12 00:33:15;;;;;;;3.80;3.03;;;6.60;1.00;;;;;;7376764;19;20014;-70
2024/03/12 00:35:46;;;;;;;4.75;3.25;;;6.60;1.00;;;;;;7376644;19;20503;-70
2024/03/12 00:38:17;;;;;;;6.47;2.67;;;6.50;1.00;;;;;;7377959;19;20011;-71
2024/03/12 00:40:50;;;;;;;4.43;3.13;;;6.40;1.00;;;;;;7377879;19;20021;-70
2024/03/12 00:43:20;;;;;;;4.22;2.70;;;6.40;1.00;;;;;;7373764;19;20460;-71
2024/03/12 00:45:51;;;;;;;6.00;2.75;;;6.40;1.00;;;;;;7376130;19;20011;-71
2024/03/12 00:48:25;;;;;;;6.68;3.22;;;6.40;1.00;;;;;;7376165;19;20010;-71
2024/03/12 00:50:55;;;;;;;4.10;2.95;;;6.40;1.00;;;;;;7376391;19;20011;-71
2024/03/12 00:53:25;;;;;;;6.68;2.63;;;6.40;1.00;;;;;;7377485;19;20011;-71
2024/03/12 00:55:56;;;;;;;3.25;2.78;;;6.40;1.00;;;;;;7375873;19;20022;-73
2024/03/12 00:58:28;;;;;;;3.00;2.70;;;6.50;1.00;;;;;;7376608;19;20082;-70
2024/03/12 01:00:58;;;;;;;3.33;2.65;;;6.40;1.00;;;;;;7376631;19;20018;-70
2024/03/12 01:03:31;;;;;;;3.55;2.80;;;6.50;1.00;;;;;;7374350;19;20094;-70
2024/03/12 01:06:01;;;;;;;4.38;2.60;;;6.40;1.00;;;;;;7374556;19;20509;-70
2024/03/12 01:08:31;;;;;;;3.55;2.88;;;6.30;1.00;;;;;;7375404;19;20023;-70
2024/03/12 01:11:03;;;;;;;4.35;3.10;;;6.30;1.00;;;;;;7376236;19;20090;-71
2024/03/12 01:13:33;;;;;;;3.78;2.88;;;6.20;1.00;;;;;;7376053;19;20031;-72
2024/03/12 01:16:03;;;;;;;4.30;2.83;;;6.20;1.00;;;;;;7374872;19;20018;-70
2024/03/12 01:18:36;;;;;;;4.85;3.15;;;6.10;1.00;;;;;;7375958;19;20034;-70
2024/03/12 01:21:08;;;;;;;4.75;2.97;;;6.10;1.00;;;;;;7374176;19;20688;-72
2024/03/12 01:23:39;;;;;;;7.72;3.17;;;6.10;1.00;;;;;;7377356;19;20504;-70
2024/03/12 01:26:09;;;;;;;4.10;2.83;;;6.10;1.00;;;;;;7382605;19;20007;-70
2024/03/12 01:28:41;;;;;;;4.50;3.15;;;6.00;1.00;;;;;;7381492;19;20011;-70
2024/03/12 01:31:11;;;;;;;5.35;2.90;;;6.00;1.00;;;;;;7382450;19;20017;-71
2024/03/12 01:33:44;;;;;;;4.97;2.95;;;6.00;1.00;;;;;;7382117;19;20475;-69
2024/03/12 01:36:29;;;;;;;5.15;2.95;;;6.00;1.00;;;;;;7382262;19;20010;-69
2024/03/12 01:39:03;;;;;;;3.80;3.30;;;5.90;1.00;;;;;;6870363;19;2004001;-70
2024/03/12 01:41:34;;;;;;;;;;;5.90;1.00;;;;;;7383259;19;20010;-71
2024/03/12 01:44:08;;;;;;;5.72;2.92;;;5.90;1.00;;;;;;7382525;19;19915;-70
2024/03/12 01:46:39;;;;;;;4.13;3.33;;;5.80;1.00;;;;;;7381546;19;20021;-70
2024/03/12 01:49:13;;;;;;;4.28;2.95;;;5.90;1.00;;;;;;7381791;19;20055;-70
2024/03/12 01:51:43;;;;;;;3.90;3.25;;;5.80;1.00;;;;;;7381686;19;20444;-70
2024/03/12 01:54:14;;;;;;;4.68;3.33;;;5.70;1.00;;;;;;7382664;19;20011;-71
2024/03/12 01:56:44;;;;;;;4.50;3.42;;;5.60;1.00;;;;;;7377392;19;20014;-69
2024/03/12 01:59:15;;;;;;;6.10;3.17;;;5.60;1.00;;;;;;7381357;19;20007;-69
2024/03/12 02:01:46;;;;;;;3.92;2.95;;;5.50;1.00;;;;;;7383401;19;20027;-70
2024/03/12 02:04:22;;;;;;;4.22;3.00;;;5.50;1.00;;;;;;7382242;19;20017;-70
2024/03/12 02:06:52;;;;;;;4.32;3.50;;;5.40;1.00;;;;;;7378753;19;20014;-69
2024/03/12 02:09:23;;;;;;;4.70;3.60;;;5.50;1.00;;;;;;7381332;19;20006;-70
2024/03/12 02:11:53;;;;;;;5.80;3.83;;;5.40;1.00;;;;;;7380498;19;20025;-71
2024/03/12 02:14:24;;;;;;;3.35;3.00;;;5.40;1.00;;;;;;7380355;19;20626;-70
2024/03/12 02:16:54;;;;;;;4.63;3.30;;;5.40;1.00;;;;;;7379657;19;20734;-70
2024/03/12 02:19:26;;;;;;;4.15;3.20;;;5.40;1.00;;;;;;7381168;19;20431;-70
2024/03/12 02:21:56;;;;;;;4.25;3.22;;;5.40;1.00;;;;;;7381060;19;20018;-70
2024/03/12 02:24:31;;;;;;;4.35;3.42;;;5.40;1.00;;;;;;7377002;19;20058;-70
2024/03/12 02:27:01;;;;;;;3.53;3.00;;;5.30;1.00;;;;;;7380277;19;20096;-70
2024/03/12 02:29:31;;;;;;;4.10;3.10;;;5.20;1.00;;;;;;7379566;19;20014;-69
2024/03/12 02:32:02;;;;;;;3.80;3.08;;;5.20;1.00;;;;;;7381095;19;20006;-69
2024/03/12 02:34:32;;;;;;;4.78;3.10;;;5.20;1.00;;;;;;7380218;19;20015;-71
2024/03/12 02:37:02;;;;;;;6.88;3.47;;;5.20;1.00;;;;;;7379214;19;20037;-70
2024/03/12 02:39:35;;;;;;;5.03;3.55;;;5.10;1.00;;;;;;7380781;19;20066;-69
2024/03/12 02:42:05;;;;;;;6.38;2.90;;;5.10;1.00;;;;;;7380958;19;20013;-70
2024/03/12 02:44:36;;;;;;;3.67;3.05;;;5.10;1.00;;;;;;7380249;19;20010;-70
2024/03/12 02:47:07;;;;;;;4.78;3.35;;;5.10;1.00;;;;;;7380866;19;20420;-71
2024/03/12 02:49:38;;;;;;;3.97;3.15;;;5.00;1.00;;;;;;7380845;19;20014;-70
2024/03/12 02:52:11;;;;;;;2.92;2.47;;;5.00;1.00;;;;;;7380315;19;20049;-72
2024/03/12 02:54:44;;;;;;;3.38;2.83;;;5.10;1.00;;;;;;7379978;19;20023;-70
2024/03/12 02:57:14;;;;;;;3.60;2.83;;;5.20;1.00;;;;;;7379409;19;20029;-71
2024/03/12 02:59:44;;;;;;;4.50;3.10;;;5.20;1.00;;;;;;7380031;19;20038;-71
2024/03/12 03:02:15;;;;;;;4.38;2.88;;;5.20;1.00;;;;;;7380047;19;20014;-71
2024/03/12 03:04:45;;;;;;;3.83;3.08;;;5.20;1.00;;;;;;7379519;19;20007;-70
2024/03/12 03:07:16;;;;;;;4.22;3.15;;;5.20;1.00;;;;;;7379840;19;20003;-69
2024/03/12 03:09:49;;;;;;;3.22;2.63;;;5.20;1.00;;;;;;7380610;19;20043;-70
2024/03/12 03:12:19;;;;;;;3.00;2.50;;;5.20;1.00;;;;;;7379848;19;20010;-71
2024/03/12 03:14:49;;;;;;;5.80;3.00;;;5.20;1.00;;;;;;7379700;19;20019;-70
2024/03/12 03:17:20;;;;;;;3.30;2.97;;;5.10;1.00;;;;;;7376683;19;20038;-70
2024/03/12 03:19:50;;;;;;;4.78;3.10;;;5.00;1.00;;;;;;7380186;19;20014;-70
2024/03/12 03:22:20;;;;;;;3.67;2.90;;;5.00;1.00;;;;;;7380211;19;20045;-70
2024/03/12 03:24:53;;;;;;;4.32;2.70;;;5.10;1.00;;;;;;7379320;19;20011;-71
2024/03/12 03:27:23;;;;;;;4.63;2.88;;;5.20;1.00;;;;;;7376989;19;20022;-70
2024/03/12 03:29:56;;;;;;;5.97;3.20;;;5.30;1.00;;;;;;7378686;19;20407;-70
2024/03/12 03:32:26;;;;;;;4.15;2.70;;;5.30;1.00;;;;;;7379047;19;20880;-70
2024/03/12 03:34:56;;;;;;;4.03;2.80;;;5.40;1.00;;;;;;7377590;19;20014;-68
2024/03/12 03:37:30;;;;;;;3.85;2.78;;;5.40;1.00;;;;;;7378371;19;20016;-69
2024/03/12 03:40:04;;;;;;;3.95;3.08;;;5.40;1.00;;;;;;7379420;19;20011;-69
2024/03/12 03:42:34;;;;;;;3.95;2.60;;;5.40;1.00;;;;;;7378681;19;20355;-69
2024/03/12 03:45:04;;;;;;;3.80;3.25;;;5.40;1.00;;;;;;7377802;19;20017;-69
2024/03/12 03:47:36;;;;;;;5.35;3.13;;;5.50;1.00;;;;;;7376474;19;20018;-69
2024/03/12 03:50:08;;;;;;;3.35;2.75;;;5.50;1.00;;;;;;7379089;19;20015;-69
2024/03/12 03:52:40;;;;;;;4.90;3.08;;;5.60;1.00;;;;;;7379023;19;20566;-70
2024/03/12 03:55:14;;;;;;;3.90;3.10;;;5.70;1.00;;;;;;7376618;19;20463;-69
2024/03/12 03:57:44;;;;;;;5.45;3.08;;;5.70;1.00;;;;;;7377990;19;20014;-70
2024/03/12 04:00:23;;;;;;;4.20;3.00;;;5.80;1.00;;;;;;7375572;19;20035;-71
2024/03/12 04:02:53;;;;;;;3.63;2.92;;;5.80;1.00;;;;;;7375238;19;20074;-69
2024/03/12 04:05:24;;;;;;;4.63;2.85;;;5.80;1.00;;;;;;7376947;19;20554;-69
2024/03/12 04:07:54;;;;;;;3.67;2.60;;;5.90;1.00;;;;;;7377493;19;20456;-69
2024/03/12 04:10:27;;;;;;;3.28;2.70;;;5.90;1.00;;;;;;7377289;19;20515;-71
2024/03/12 04:12:58;;;;;;;5.65;3.40;;;6.00;1.00;;;;;;7377602;19;20011;-71
2024/03/12 04:15:28;;;;;;;5.68;3.00;;;5.90;1.00;;;;;;7376472;19;20014;-69
2024/03/12 04:17:59;;;;;;;3.28;2.92;;;6.00;1.00;;;;;;7379068;19;20010;-69
2024/03/12 04:20:29;;;;;;;4.57;3.05;;;6.00;1.00;;;;;;7378394;19;20453;-69
2024/03/12 04:23:01;;;;;;;3.78;3.00;;;6.10;1.00;;;;;;7377715;19;20014;-68
2024/03/12 04:25:33;;;;;;;3.67;3.22;;;6.10;1.00;;;;;;7374431;19;20014;-71
2024/03/12 04:28:03;;;;;;;4.10;3.30;;;6.10;1.00;;;;;;7378151;19;20496;-70
2024/03/12 04:30:35;;;;;;;4.88;3.20;;;6.10;1.00;;;;;;7376745;19;20040;-69
2024/03/12 04:33:06;;;;;;;5.03;3.35;;;6.20;1.00;;;;;;7377963;19;20610;-69
2024/03/12 04:35:36;;;;;;;3.20;2.90;;;6.30;1.00;;;;;;7376964;19;20031;-70
2024/03/12 04:38:07;;;;;;;4.05;3.03;;;6.40;1.00;;;;;;7378118;19;20006;-70
2024/03/12 04:40:40;;;;;;;4.00;3.13;;;6.40;1.00;;;;;;7377944;19;20006;-70
2024/03/12 04:43:12;;;;;;;3.45;2.75;;;6.40;1.00;;;;;;7377426;19;20018;-70
2024/03/12 04:45:43;;;;;;;6.10;3.35;;;6.30;1.00;;;;;;7377089;19;20007;-70
2024/03/12 04:48:13;;;;;;;4.63;2.78;;;6.30;1.00;;;;;;7378839;19;20014;-71
2024/03/12 04:50:43;;;;;;;4.05;2.95;;;6.30;1.00;;;;;;7378115;19;20029;-70
2024/03/12 04:53:13;;;;;;;5.28;3.25;;;6.30;1.00;;;;;;7379133;19;20533;-71
2024/03/12 04:55:45;;;;;;;5.65;3.78;;;6.30;1.00;;;;;;7378959;19;20783;-71
2024/03/12 04:58:15;;;;;;;5.43;3.80;;;6.30;1.00;;;;;;7374094;19;20010;-71
2024/03/12 05:00:45;;;;;;;5.22;3.42;;;6.30;1.00;;;;;;7385649;19;20008;-71
2024/03/12 05:03:16;;;;;;;3.63;3.05;;;6.30;1.00;;;;;;7385269;19;20081;-71
2024/03/12 05:05:46;;;;;;;5.93;3.80;;;6.20;1.00;;;;;;7384566;19;20014;-71
2024/03/12 05:08:16;;;;;;;4.10;3.60;;;6.20;1.00;;;;;;7384524;19;20007;-72
2024/03/12 05:10:48;;;;;;;4.85;3.65;;;6.20;1.00;;;;;;7384398;19;20011;-71
2024/03/12 05:13:21;;;;;;;5.22;3.72;;;6.20;1.00;;;;;;7386830;19;20030;-72
2024/03/12 05:15:51;;;;;;;4.35;3.78;;;6.20;1.00;;;;;;7383916;19;20007;-72
2024/03/12 05:18:22;;;;;;;4.55;3.90;;;6.20;1.00;;;;;;7381967;19;20002;-70
2024/03/12 05:20:53;;;;;;;4.55;3.70;;;6.20;1.00;;;;;;7382749;19;20011;-71
2024/03/12 05:23:23;;;;;;;9.10;4.10;;;6.20;1.00;;;;;;7379867;19;20002;-70
2024/03/12 05:25:56;;;;;;;6.40;4.13;;;6.20;1.00;;;;;;7376475;19;20038;-70
2024/03/12 05:28:26;;;;;;;4.45;3.58;;;6.20;1.00;;;;;;7383289;19;20045;-70
2024/03/12 05:30:57;;;;;;;5.28;3.45;;;6.20;1.00;;;;;;7379202;19;20085;-72
2024/03/12 05:33:29;;;;;;;4.53;3.70;;;6.20;1.00;;;;;;7382630;19;20010;-70
2024/03/12 05:36:09;;;;;;;5.07;3.97;;;6.20;1.00;;;;;;7381938;19;20471;-70
2024/03/12 05:38:44;;;;;;;5.45;3.75;;;6.30;1.00;;;;;;7384210;19;20015;-71
2024/03/12 05:41:25;;;;;;;4.80;3.72;;;6.30;1.00;;;;;;7385536;19;20385;-71
2024/03/12 05:49:29;;;;;;;4.60;3.72;;;6.40;1.00;;;;;;7381309;19;20530;-71
2024/03/12 05:51:59;;;;;;;5.32;3.67;;;6.40;1.00;;;;;;7382107;19;20048;-71
2024/03/12 05:54:29;;;;;;;5.78;3.65;;;6.40;1.00;;;;;;7383015;19;20535;-70
2024/03/12 05:57:02;;;;;;;5.10;3.58;;;6.50;1.00;;;;;;7381364;19;20044;-71
2024/03/12 05:59:32;;;;;;;6.95;3.90;;;6.50;1.00;;;;;;7383099;19;20006;-70
2024/03/12 06:02:02;;;;;;;4.50;3.90;;;6.50;1.00;;;;;;7379094;19;20017;-71
2024/03/12 06:04:32;;;;;;;5.60;3.60;;;6.60;1.00;;;;;;7381969;19;20010;-71
2024/03/12 06:07:03;;;;;;;4.22;3.60;;;6.60;1.00;;;;;;7381168;19;20011;-70
2024/03/12 06:09:33;;;;;;;6.35;3.80;;;6.60;1.00;;;;;;7381508;19;20025;-71
2024/03/12 06:12:06;;;;;;;5.38;3.75;;;6.60;1.00;;;;;;7382235;19;20399;-71
2024/03/12 06:14:37;;;;;;;5.88;4.03;;;6.60;1.00;;;;;;7381632;19;20003;-70
2024/03/12 06:17:07;;;;;;;4.57;3.95;;;6.70;1.00;;;;;;7380863;19;20028;-71
2024/03/12 06:19:37;;;;;;;5.28;3.63;;;6.70;1.00;;;;;;7382727;19;20002;-70
2024/03/12 06:22:08;;;;;;;6.07;4.07;;;6.70;1.00;;;;;;7382084;19;20487;-70
2024/03/12 06:24:39;;;;;;;6.07;4.05;;;6.70;1.00;;;;;;7381753;19;20039;-71
2024/03/12 06:27:12;;;;;;;5.25;4.30;;;6.70;1.00;;;;;;7381825;19;20014;-69
2024/03/12 06:29:45;;;;;;;6.18;4.60;;;6.70;1.00;;;;;;7382564;19;20007;-70
2024/03/12 06:32:17;;;;;;;5.25;4.22;;;6.60;1.00;;;;;;7381031;19;20459;-70
2024/03/12 06:34:48;;;;;;;5.32;4.10;;;6.70;1.00;;;;;;7381976;19;20011;-70
2024/03/12 06:37:18;;;;;;;6.82;5.18;;;6.70;1.00;;;;;;7382299;19;20032;-70
2024/03/12 06:39:48;;;;;;;7.40;4.90;;;6.70;1.00;;;;;;7381731;19;20017;-70
2024/03/12 06:42:25;;;;;;;6.18;4.65;;;6.70;1.00;;;;;;7382653;19;20036;-70
2024/03/12 06:44:56;;;;;;;7.47;4.32;;;6.80;1.00;;;;;;7380847;19;20091;-70
2024/03/12 06:47:28;;;;;;;5.70;4.90;;;6.80;1.00;;;;;;7381424;19;20002;-70
2024/03/12 06:49:59;;;;;;;7.18;4.30;;;6.90;1.00;;;;;;7379641;19;20014;-71
2024/03/12 06:52:29;;;;;;;5.50;4.43;;;6.90;1.00;;;;;;7381086;19;20013;-71
2024/03/12 06:55:00;;;;;;;7.38;5.05;;;7.00;1.00;;;;;;7378881;19;20009;-70
2024/03/12 06:57:34;;;;;;;6.18;4.28;;;7.00;1.00;;;;;;7381034;19;20013;-70
2024/03/12 07:00:09;;;;;;;6.10;4.82;;;7.00;1.00;;;;;;7381592;19;20474;-70
2024/03/12 07:02:40;;;;;;;5.68;4.00;;;7.10;1.00;;;;;;7377180;19;20006;-71
2024/03/12 07:05:15;;;;;;;4.63;4.13;;;7.10;1.00;;;;;;7377646;19;20100;-70
2024/03/12 07:07:46;;;;;;;7.97;4.05;;;7.20;1.00;;;;;;7379063;19;20092;-70
2024/03/12 07:10:18;;;;;;;5.20;3.22;;;7.20;1.00;;;;;;7381103;19;20123;-70
2024/03/12 07:12:51;;;;;;;4.88;3.75;;;7.10;1.00;;;;;;7380895;19;20002;-69
2024/03/12 07:15:21;;;;;;;4.47;3.83;;;7.20;1.00;;;;;;7379735;19;20031;-69
2024/03/12 07:17:52;;;;;;;6.53;4.25;;;7.20;1.00;;;;;;7379118;19;20044;-69
2024/03/12 07:20:22;;;;;;;5.75;4.47;;;7.20;1.00;;;;;;7378927;19;20027;-69
2024/03/12 07:22:52;;;;;;;6.72;4.47;;;7.20;1.00;;;;;;7376571;19;20007;-69
2024/03/12 07:25:22;;;;;;;4.03;3.58;;;7.20;1.00;;;;;;7377227;19;20791;-68
2024/03/12 07:27:56;;;;;;;5.75;4.13;;;7.30;1.00;;;;;;7379909;19;20065;-69
2024/03/12 07:30:26;;;;;;;6.85;4.20;;;7.20;1.00;;;;;;7379118;19;20018;-70
2024/03/12 07:32:57;;;;;;;4.63;3.75;;;7.20;1.00;;;;;;7380559;19;20059;-70
2024/03/12 07:35:28;;;;;;;3.97;3.58;;;7.30;1.00;;;;;;7377444;19;20018;-70
2024/03/12 07:38:00;;;;;;;5.63;3.30;;;7.30;1.00;;;;;;7377457;19;20490;-70
2024/03/12 07:40:30;;;;;;;5.15;3.97;;;7.40;1.00;;;;;;7378572;19;20010;-68
2024/03/12 07:43:04;;;;;;;4.88;3.55;;;7.40;1.00;;;;;;7378228;19;20022;-70
2024/03/12 07:45:35;;;;;;;4.30;3.22;;;7.40;1.00;;;;;;7378091;19;20094;-68
2024/03/12 07:48:05;;;;;;;4.82;3.33;;;7.50;1.00;;;;;;7378210;19;20062;-69
2024/03/12 07:50:36;;;;;;;4.28;3.40;;;7.50;1.00;;;;;;7375779;19;20113;-69
2024/03/12 07:53:10;;;;;;;7.07;3.53;;;7.50;1.00;;;;;;7375502;19;20385;-69
2024/03/12 07:55:42;;;;;;;3.53;3.20;;;7.50;1.00;;;;;;7371925;19;20094;-69
2024/03/12 07:58:14;;;;;;;5.95;3.55;;;7.50;1.00;;;;;;7374728;19;20018;-71
2024/03/12 08:00:45;;;;;;;5.50;3.47;;;7.50;1.00;;;;;;7374754;19;20430;-69
2024/03/12 08:03:15;;;;;;;4.28;3.10;;;7.50;1.00;;;;;;7373950;19;20014;-70
2024/03/12 08:05:45;;;;;;;4.63;3.33;;;7.50;1.00;;;;;;7373956;19;20014;-70
2024/03/12 08:08:15;;;;;;;5.10;3.28;;;7.60;1.00;;;;;;7378095;19;20010;-68
2024/03/12 08:10:46;;;;;;;8.60;3.13;;;7.60;1.00;;;;;;7377858;19;20032;-70
2024/03/12 08:13:18;;;;;;;5.18;3.40;;;7.60;1.00;;;;;;7377206;19;20022;-69
2024/03/12 08:15:48;;;;;;;4.00;3.33;;;7.60;1.00;;;;;;7375943;19;20086;-68
2024/03/12 08:18:18;;;;;;;4.13;2.95;;;7.70;1.00;;;;;;7378042;19;20449;-69
2024/03/12 08:20:52;;;;;;;2.70;2.50;;;7.70;1.00;;;;;;7377807;19;20017;-68
2024/03/12 08:23:23;;;;;;;4.45;2.65;;;7.80;1.00;;;;;;7376789;19;20006;-68
2024/03/12 08:25:53;;;;;;;4.07;2.80;;;7.80;1.00;;;;;;7377101;19;20010;-68
2024/03/12 08:28:33;;;;;;;5.15;2.55;;;7.80;1.00;;;;;;7375176;19;20018;-70
2024/03/12 08:31:04;;;;;;;3.97;3.00;;;7.90;1.00;;;;;;7376727;19;20006;-71
2024/03/12 08:33:47;;;;;;;5.00;2.92;;;8.00;1.00;;;;;;7375850;19;20017;-70
2024/03/12 08:36:17;;;;;;;6.35;2.95;;;8.00;1.00;;;;;;7374851;19;20018;-69
2024/03/12 08:38:47;;;;;;;6.20;2.72;;;8.10;1.00;;;;;;7374677;19;20010;-69
2024/03/12 08:41:17;;;;;;;4.40;2.50;;;8.10;1.00;;;;;;7376692;19;20021;-69
2024/03/12 08:43:50;;;;;;;4.00;2.60;;;8.20;1.00;;;;;;7376355;19;20039;-69
2024/03/12 08:46:20;;;;;;;7.50;2.65;;;8.30;1.00;;;;;;7374926;19;20028;-69
2024/03/12 08:48:52;;;;;;;3.20;2.00;;;8.30;1.00;;;;;;7375176;19;20018;-70
2024/03/12 08:51:23;;;;;;;3.13;2.10;;;8.40;1.00;;;;;;7376970;19;20021;-69
2024/03/12 08:53:55;;;;;;;3.92;2.65;;;8.40;1.00;;;;;;7376003;19;20368;-69
2024/03/12 08:56:25;;;;;;;2.60;2.08;;;8.40;1.00;;;;;;7373445;19;20003;-69
2024/03/12 08:58:58;;;;;;;3.00;2.20;;;8.40;1.00;;;;;;7374860;19;20463;-70
2024/03/12 09:01:28;;;;;;;4.13;2.67;;;8.30;1.00;;;;;;7376026;19;20013;-70
2024/03/12 09:03:58;;;;;;;2.70;2.10;;;8.30;1.00;;;;;;7378456;19;20044;-69
2024/03/12 09:06:29;;;;;;;2.90;1.95;;;8.30;1.00;;;;;;7375922;19;20019;-69
2024/03/12 09:09:00;;;;;;;4.22;2.28;;;8.40;1.00;;;;;;7376351;19;20464;-70
2024/03/12 09:11:30;;;;;;;4.18;2.45;;;8.40;1.00;;;;;;7372046;19;20014;-69
2024/03/12 09:14:04;;;;;;;2.63;2.00;;;8.40;1.00;;;;;;7376946;19;20034;-70
2024/03/12 09:16:35;;;;;;;3.65;1.90;;;8.50;1.00;;;;;;7371698;19;20139;-70
2024/03/12 09:19:06;;;;;;;2.47;1.80;;;8.50;1.00;;;;;;7375890;19;20015;-70
2024/03/12 09:21:37;;;;;;;2.35;1.58;;;8.50;1.00;;;;;;7375230;19;20014;-69
2024/03/12 09:24:11;;;;;;;8.65;2.10;;;8.50;1.00;;;;;;7373401;19;20007;-69
2024/03/12 09:26:41;;;;;;;2.60;1.73;;;8.50;1.00;;;;;;7372157;19;20014;-70
2024/03/12 09:29:14;;;;;;;3.30;1.95;;;8.50;1.00;;;;;;7373730;19;20017;-69
2024/03/12 09:31:45;;;;;;;1.90;1.70;;;8.60;1.00;;;;;;7374313;19;20017;-69
2024/03/12 09:34:16;;;;;;;5.18;2.05;;;8.60;1.00;;;;;;7374054;19;20021;-70
2024/03/12 09:36:46;;;;;;;2.13;1.67;;;8.60;1.00;;;;;;7373182;19;20021;-69
2024/03/12 09:39:17;;;;;;;2.10;1.63;;;8.60;1.00;;;;;;7373091;19;20022;-69
2024/03/12 09:41:55;;;;;;;3.38;1.80;;;8.60;1.00;;;;;;7372406;19;20478;-69
2024/03/12 09:44:28;;;;;;;3.63;1.70;;;8.70;1.00;;;;;;7373472;19;20022;-70
2024/03/12 09:46:58;;;;;;;3.75;1.92;;;8.70;1.00;;;;;;7379204;19;20017;-69
2024/03/12 09:49:29;;;;;;;4.85;2.58;;;8.80;1.00;;;;;;7380187;19;20010;-70
2024/03/12 09:51:59;;;;;;;4.60;1.90;;;8.80;1.00;;;;;;7380990;19;20038;-70
2024/03/12 09:54:30;;;;;;;4.28;2.30;;;8.80;1.00;;;;;;7380396;19;20023;-70
2024/03/12 09:57:02;;;;;;;3.53;2.00;;;8.90;1.00;;;;;;7379373;19;20006;-70
2024/03/12 09:59:35;;;;;;;3.33;2.22;;;8.90;1.00;;;;;;7383317;19;20087;-69
2024/03/12 10:02:05;;;;;;;8.18;2.58;;;8.90;1.00;;;;;;7382042;19;20305;-72
2024/03/12 10:04:37;;;;;;;7.57;3.17;;;9.00;1.00;;;;;;7381540;19;20462;-69
2024/03/12 10:07:08;;;;;;;5.35;3.00;;;9.00;1.00;;;;;;7380480;19;20006;-70
2024/03/12 10:09:40;;;;;;;4.63;3.00;;;9.10;1.00;;;;;;7380946;19;20062;-69
2024/03/12 10:12:12;;;;;;;5.70;3.45;;;9.10;1.00;;;;;;7378561;19;20040;-69
2024/03/12 10:14:47;;;;;;;6.15;3.70;;;9.10;1.00;;;;;;7378363;19;20117;-70
2024/03/12 10:17:18;;;;;;;6.40;3.85;;;9.10;1.00;;;;;;7380484;19;20011;-70
2024/03/12 10:19:51;;;;;;;6.32;4.07;;;9.20;1.00;;;;;;7379644;19;20017;-70
2024/03/12 10:22:26;;;;;;;7.35;4.80;;;9.20;1.00;;;;;;7379823;19;20081;-69
2024/03/12 10:25:10;;;;;;;7.95;4.70;;;9.40;1.00;;;;;;7377194;19;20026;-69
2024/03/12 10:27:54;;;;;;;5.93;3.85;;;9.50;1.00;;;;;;7382158;19;20022;-70
2024/03/12 10:30:40;;;;;;;5.07;3.80;;;9.50;1.00;;;;;;6869340;19;2005198;-69
2024/03/12 10:33:17;;;;;;;4.78;3.53;;;9.60;1.00;;;;;;7377181;19;20006;-69
2024/03/12 10:35:50;;;;;;;7.07;4.07;;;9.50;1.00;;;;;;7376001;19;20011;-70
2024/03/12 10:38:28;;;;;;;8.13;3.70;;;9.50;1.00;;;;;;7379711;19;20010;-69
2024/03/12 10:40:58;;;;;;;7.90;4.32;;;9.60;1.00;;;;;;7378948;19;20041;-70
2024/03/12 10:43:29;;;;;;;8.00;4.68;;;9.80;1.00;;;;;;7379197;19;20007;-69
2024/03/12 10:46:01;;;;;;;7.80;5.45;;;10.10;1.00;;;;;;7377119;19;20017;-70
2024/03/12 10:48:31;;;;;;;7.57;5.25;;;9.70;1.00;;;;;;7377811;19;20054;-69
2024/03/12 10:51:02;;;;;;;6.88;5.15;;;9.60;1.00;;;;;;7379494;19;20094;-70
2024/03/12 10:53:33;;;;;;;9.35;5.18;;;9.60;1.00;;;;;;7379692;19;20014;-70
2024/03/12 10:56:03;;;;;;;7.03;4.68;;;9.50;1.00;;;;;;7376853;19;20023;-70
2024/03/12 10:58:44;;;;;;;11.10;5.82;;;9.40;1.00;;;;;;7379816;19;20018;-69
2024/03/12 11:01:20;;;;;;;10.30;5.47;;;9.30;1.00;;;;;;7377018;19;20011;-69
2024/03/12 11:03:55;;;;;;;14.07;7.63;;;9.30;1.00;;;;;;7377530;19;20007;-69
2024/03/12 11:06:26;;;;;;;9.13;6.03;;;9.20;1.00;;;;;;7376591;19;20011;-69
2024/03/12 11:08:59;;;;;;;10.13;6.10;;;9.10;1.00;;;;;;7378826;19;20028;-70
2024/03/12 11:11:30;;;;;;;15.00;4.80;;;9.10;1.00;;;;;;7382619;19;20029;-69
2024/03/12 11:14:02;;;;;;;9.48;6.07;;;9.10;1.00;;;;;;7377318;19;20011;-68
2024/03/12 11:16:39;;;;;;;7.97;5.18;;;9.30;1.00;;;;;;7374200;19;20006;-68
2024/03/12 11:19:22;;;;;;;9.05;5.53;;;9.20;1.00;;;;;;7378147;19;20467;-69
2024/03/12 11:21:54;;;;;;;9.52;5.35;;;9.30;1.00;;;;;;7378747;19;20006;-69
2024/03/12 11:24:29;;;;;;;12.55;6.28;;;9.20;1.00;;;;;;7379814;19;20027;-69
2024/03/12 11:27:01;;;;;;;8.95;6.18;;;9.30;1.00;;;;;;7376733;19;20109;-69
2024/03/12 11:30:03;;;;;;;9.18;5.95;;;9.20;1.00;;;;;;7380083;19;20428;-69
2024/03/12 11:32:38;;;;;;;10.27;5.15;;;9.10;1.00;;;;;;6867924;19;2003976;-70
2024/03/12 11:35:11;;;;;;;8.73;4.68;;;8.80;1.00;;;;;;7377559;19;20474;-70
2024/03/12 11:37:41;;;;;;;7.30;4.90;;;8.50;1.00;;;;;;7379239;19;20006;-71
2024/03/12 11:40:26;;;;;;;8.38;5.47;;;8.50;1.00;;;;;;7379400;19;20006;-71
2024/03/12 11:42:57;;;;;;;6.47;4.70;;;8.60;1.00;;;;;;7379340;19;20015;-70
2024/03/12 11:45:45;;;;;;;8.02;5.00;;;8.50;1.00;;;;;;7377466;19;20010;-70
2024/03/12 11:48:24;;;;;;;8.10;5.28;;;8.70;1.00;;;;;;7072492;19;2004040;-71
2024/03/12 11:50:55;;;;;;;9.27;5.63;;;8.80;1.00;;;;;;7380379;19;20014;-70
2024/03/12 11:53:28;;;;;;;11.20;6.00;;;9.10;1.00;;;;;;7377809;19;20026;-71
2024/03/12 11:56:00;;;;;;;9.02;6.00;;;9.20;1.00;;;;;;7378547;19;20187;-71
2024/03/12 11:58:38;;;;;;;6.18;4.65;;;9.30;1.00;;;;;;7380584;19;20027;-70
2024/03/12 12:01:10;;;;;;;4.75;3.15;;;9.20;1.00;;;;;;7371949;19;20010;-71
2024/03/12 12:03:43;;;;;;;4.97;3.05;;;9.40;1.00;;;;;;7379059;19;20015;-70
2024/03/12 12:06:14;;;;;;;6.47;4.35;;;9.50;1.00;;;;;;7375739;19;20007;-70
2024/03/12 12:08:44;;;;;;;10.80;6.30;;;9.40;1.00;;;;;;7374703;19;20087;-70
2024/03/12 12:11:25;;;;;;;10.93;6.55;;;9.50;1.00;;;;;;7377207;19;20049;-70
2024/03/12 12:13:57;;;;;;;10.88;6.72;;;9.50;1.00;;;;;;7375660;19;20011;-70
2024/03/12 12:16:28;;;;;;;12.68;7.35;;;9.60;1.00;;;;;;7376150;19;20110;-70
2024/03/12 12:19:08;;;;;;;13.30;8.60;;;9.80;1.00;;;;;;7376051;19;20359;-70
2024/03/12 12:21:47;;;;;;;14.90;9.63;;;9.90;1.00;;;;;;7373257;19;20040;-69
2024/03/12 12:24:17;;;;;;;17.23;12.20;;;10.00;1.00;;;;;;7378197;19;20022;-70
2024/03/12 12:26:48;;;;;;;21.65;13.75;;;9.80;1.00;;;;;;7376270;19;20026;-70
2024/03/12 12:29:18;;;;;;;26.63;16.80;;;9.50;1.00;;;;;;7376428;19;20071;-69
2024/03/12 12:31:51;;;;;;;24.05;16.70;;;9.50;1.00;;;;;;7376560;19;20017;-70
2024/03/12 12:34:28;;;;;;;25.42;16.50;;;9.60;1.00;;;;;;7371113;19;20014;-69
2024/03/12 12:36:59;;;;;;;26.88;17.48;;;9.50;1.00;;;;;;7376538;19;20014;-69
2024/03/12 12:39:34;;;;;;;28.52;18.00;;;9.30;1.00;;;;;;7375697;19;20509;-70
2024/03/12 12:42:21;;;;;;;28.98;17.52;;;9.30;1.00;;;;;;7377137;19;20010;-69
2024/03/12 12:44:53;;;;;;;29.40;18.02;;;9.30;1.00;;;;;;7374212;19;20106;-69
2024/03/12 12:47:25;;;;;;;27.67;17.48;;;9.20;1.00;;;;;;7375707;19;20011;-69
2024/03/12 12:49:59;;;;;;;27.00;16.70;;;9.20;1.00;;;;;;7375402;19;20031;-69
2024/03/12 12:52:29;;;;;;;31.13;17.08;;;9.20;1.00;;;;;;7376127;19;20011;-69
2024/03/12 12:55:00;;;;;;;30.00;16.98;;;9.30;1.00;;;;;;7375022;19;20007;-69
2024/03/12 12:57:42;;;;;;;29.50;18.20;;;9.40;1.00;;;;;;7377037;19;20521;-69
2024/03/12 13:00:23;;;;;;;28.27;16.75;;;9.40;1.00;;;;;;7377206;19;20025;-69
2024/03/12 13:02:53;;;;;;;28.10;17.35;;;9.10;1.00;;;;;;7378379;19;20074;-69
2024/03/12 13:05:26;;;;;;;28.20;17.33;;;9.30;1.00;;;;;;7375498;19;20030;-70
2024/03/12 13:07:58;;;;;;;27.27;17.48;;;9.10;1.00;;;;;;7375530;19;20018;-70
2024/03/12 13:10:28;;;;;;;32.13;18.60;;;9.10;1.00;;;;;;7375482;19;20007;-69
2024/03/12 13:12:58;;;;;;;30.10;18.73;;;9.10;1.00;;;;;;7375068;19;20054;-70
2024/03/12 13:15:33;;;;;;;26.33;18.13;;;9.10;1.00;;;;;;7373171;19;20053;-69
2024/03/12 13:18:04;;;;;;;30.15;18.50;;;9.20;1.00;;;;;;7374941;19;20014;-69
2024/03/12 13:20:37;;;;;;;29.70;18.10;;;9.30;1.00;;;;;;7379181;19;20117;-69
2024/03/12 13:23:08;;;;;;;33.83;19.90;;;9.40;1.00;;;;;;7381852;19;20006;-70
2024/03/12 13:25:39;;;;;;;31.75;19.15;;;9.60;1.00;;;;;;7380609;19;20035;-69
2024/03/12 13:28:09;;;;;;;32.15;20.17;;;9.70;1.00;;;;;;7381954;19;20010;-70
2024/03/12 13:30:40;;;;;;;30.50;19.90;;;9.90;1.00;;;;;;7381240;19;20392;-69
2024/03/12 13:33:10;;;;;;;28.92;19.08;;;9.90;1.00;;;;;;7382191;19;20082;-70
2024/03/12 13:35:43;;;;;;;32.55;20.30;;;10.00;1.00;;;;;;7380470;19;20011;-69